createdAt,value
2018-05-07T08:47:13.094Z,21.90
2018-05-07T08:49:46.834Z,22.20
2018-05-07T08:52:22.607Z,22.30
2018-05-07T08:54:52.243Z,22.10
2018-05-07T08:57:31.728Z,22.10
2018-05-07T09:00:04.322Z,23.30
2018-05-07T09:02:33.354Z,23.20
2018-05-07T09:05:11.122Z,23.50
2018-05-07T09:07:42.214Z,23.80
2018-05-07T09:10:13.942Z,23.00
2018-05-07T09:12:41.962Z,22.50
2018-05-07T09:15:10.766Z,22.80
2018-05-07T09:17:40.715Z,22.70
2018-05-07T09:20:08.730Z,22.90
2018-05-07T09:22:36.727Z,22.70
2018-05-07T09:25:05.515Z,22.80
2018-05-07T09:27:33.535Z,22.80
2018-05-07T09:30:01.547Z,22.90
2018-05-07T09:32:29.546Z,23.20
2018-05-07T09:35:01.316Z,23.30
2018-05-07T09:37:29.315Z,23.60
2018-05-07T09:39:57.330Z,23.90
2018-05-07T09:42:26.357Z,23.90
2018-05-07T09:44:54.362Z,23.80
2018-05-07T09:47:25.132Z,24.00
2018-05-07T09:49:58.654Z,24.00
2018-05-07T09:52:28.362Z,24.30
2018-05-07T09:54:56.398Z,24.30
2018-05-07T09:57:26.379Z,24.30
2018-05-07T09:59:57.058Z,24.20
2018-05-07T10:02:33.215Z,24.20
2018-05-07T10:05:04.266Z,24.60
2018-05-07T10:07:36.958Z,25.20
2018-05-07T10:10:06.950Z,25.50
2018-05-07T10:12:34.954Z,26.00
2018-05-07T10:15:03.913Z,25.80
2018-05-07T10:17:33.842Z,26.00
2018-05-07T10:20:02.809Z,26.50
2018-05-07T10:22:35.090Z,26.80
2018-05-07T10:25:07.553Z,27.00
2018-05-07T10:27:40.559Z,26.90
2018-05-07T10:30:08.558Z,26.90
2018-05-07T10:32:43.734Z,26.80
2018-05-07T10:35:11.747Z,26.80
2018-05-07T10:37:40.710Z,26.90
2018-05-07T10:40:08.729Z,26.90
2018-05-07T10:42:48.485Z,27.00
2018-05-07T10:45:20.501Z,26.90
2018-05-07T10:47:49.481Z,27.20
2018-05-07T10:50:17.477Z,27.60
2018-05-07T10:52:50.853Z,28.00
2018-05-07T10:55:23.821Z,28.40
2018-05-07T10:57:52.837Z,29.00
2018-05-07T11:00:27.233Z,27.90
2018-05-07T11:02:55.257Z,28.60
2018-05-07T11:05:24.029Z,29.70
2018-05-07T11:07:52.033Z,29.70
2018-05-07T11:10:27.121Z,29.50
2018-05-07T11:12:59.065Z,29.10
2018-05-07T11:15:27.105Z,28.80
2018-05-07T11:17:57.065Z,29.60
2018-05-07T11:20:32.997Z,30.40
2018-05-07T11:23:10.773Z,29.60
2018-05-07T11:25:48.581Z,29.40
2018-05-07T11:28:16.585Z,29.50
2018-05-07T11:30:45.553Z,29.70
2018-05-07T11:33:15.502Z,29.20
2018-05-07T11:35:57.317Z,29.40
2018-05-07T11:38:26.113Z,31.00
2018-05-07T11:40:58.670Z,30.20
2018-05-07T11:43:26.701Z,30.20
2018-05-07T11:45:55.689Z,29.90
2018-05-07T11:48:23.700Z,29.50
2018-05-07T11:50:53.705Z,29.00
2018-05-07T11:53:21.696Z,29.20
2018-05-07T11:56:03.490Z,30.90
2018-05-07T11:58:36.741Z,31.30
2018-05-07T12:01:06.773Z,31.30
2018-05-07T12:03:39.941Z,30.70
2018-05-07T12:06:12.553Z,30.40
2018-05-07T12:08:46.129Z,29.90
2018-05-07T12:11:14.149Z,31.30
2018-05-07T12:13:42.908Z,32.70
2018-05-07T12:16:23.433Z,32.60
2018-05-07T12:18:56.533Z,31.70
2018-05-07T12:21:25.541Z,31.60
2018-05-07T12:23:59.733Z,33.10
2018-05-07T12:26:35.765Z,33.20
2018-05-07T12:29:03.789Z,32.90
2018-05-07T12:31:33.895Z,32.70
2018-05-07T12:34:15.725Z,32.10
2018-05-07T12:36:49.777Z,30.60
2018-05-07T12:39:21.457Z,30.40
2018-05-07T12:41:50.441Z,30.40
2018-05-07T12:44:22.029Z,30.80
2018-05-07T12:46:52.788Z,33.30
2018-05-07T12:49:28.065Z,33.20
2018-05-07T12:51:56.073Z,32.70
2018-05-07T12:57:19.817Z,31.20
2018-05-07T12:59:51.277Z,31.20
2018-05-07T13:02:19.289Z,31.10
2018-05-07T13:04:49.966Z,34.80
2018-05-07T13:07:18.029Z,34.70
2018-05-07T13:09:54.913Z,35.60
2018-05-07T13:12:22.961Z,35.60
2018-05-07T13:15:01.073Z,34.00
2018-05-07T13:17:34.301Z,34.00
2018-05-07T13:20:02.301Z,34.40
2018-05-07T13:22:37.481Z,32.80
2018-05-07T13:25:08.537Z,32.70
2018-05-07T13:27:36.561Z,33.80
2018-05-07T13:30:10.612Z,32.40
2018-05-07T13:32:39.647Z,32.40
2018-05-07T13:35:08.421Z,31.50
2018-05-07T13:37:36.429Z,31.40
2018-05-07T13:40:04.445Z,31.90
2018-05-07T13:42:40.665Z,31.60
2018-05-07T13:45:11.777Z,32.10
2018-05-07T13:47:40.717Z,32.10
2018-05-07T13:50:09.713Z,32.20
2018-05-07T13:52:39.644Z,32.50
2018-05-07T13:55:07.660Z,32.70
2018-05-07T13:57:38.436Z,31.50
2018-05-07T14:00:11.229Z,31.50
2018-05-07T14:02:41.173Z,32.20
2018-05-07T14:05:09.149Z,32.70
2018-05-07T14:07:42.508Z,31.60
2018-05-07T14:10:10.528Z,31.60
2018-05-07T14:12:47.737Z,32.00
2018-05-07T14:15:22.559Z,32.00
2018-05-07T14:18:00.177Z,31.50
2018-05-07T14:20:48.285Z,30.90
2018-05-07T14:23:20.692Z,31.20
2018-05-07T14:25:48.696Z,31.90
2018-05-07T14:28:17.476Z,29.60
2018-05-07T14:30:58.985Z,29.60
2018-05-07T14:33:28.784Z,30.80
2018-05-07T14:36:00.352Z,30.80
2018-05-07T14:38:28.328Z,31.40
2018-05-07T14:41:03.312Z,32.20
2018-05-07T14:43:32.290Z,32.60
2018-05-07T14:46:05.089Z,31.90
2018-05-07T14:48:38.792Z,30.50
2018-05-07T14:51:12.496Z,29.60
2018-05-07T14:53:47.072Z,29.80
2018-05-07T14:56:16.104Z,28.90
2018-05-07T14:58:50.483Z,29.00
2018-05-07T15:01:21.360Z,29.10
2018-05-07T15:03:51.368Z,29.50
2018-05-07T15:06:27.318Z,30.00
2018-05-07T15:08:55.332Z,30.40
2018-05-07T15:11:24.270Z,30.10
2018-05-07T15:14:04.084Z,30.40
2018-05-07T15:16:32.852Z,30.60
2018-05-07T15:19:05.498Z,30.50
2018-05-07T15:21:39.318Z,29.80
2018-05-07T15:24:07.348Z,29.20
2018-05-07T15:26:48.088Z,29.90
2018-05-07T15:29:20.266Z,31.60
2018-05-07T15:31:48.228Z,31.50
2018-05-07T15:34:16.991Z,30.90
2018-05-07T15:36:50.097Z,30.80
2018-05-07T15:39:24.344Z,29.70
2018-05-07T15:41:53.139Z,28.00
2018-05-07T15:44:23.067Z,28.00
2018-05-07T15:46:54.131Z,28.00
2018-05-07T15:49:31.704Z,29.00
2018-05-07T15:52:02.436Z,29.00
2018-05-07T15:54:36.916Z,28.60
2018-05-07T15:57:06.892Z,28.20
2018-05-07T15:59:35.863Z,27.40
2018-05-07T16:02:09.675Z,27.20
2018-05-07T16:04:40.812Z,27.00
2018-05-07T16:07:12.484Z,27.30
2018-05-07T16:09:45.976Z,27.70
2018-05-07T16:12:23.871Z,26.90
2018-05-07T16:14:53.902Z,26.80
2018-05-07T16:17:25.643Z,26.90
2018-05-07T16:19:53.639Z,27.30
2018-05-07T16:22:27.087Z,27.10
2018-05-07T16:24:59.564Z,27.10
2018-05-07T16:27:29.515Z,27.30
2018-05-07T16:30:07.196Z,27.20
2018-05-07T16:32:42.752Z,26.90
2018-05-07T16:35:16.323Z,26.70
2018-05-07T16:37:47.328Z,26.30
2018-05-07T16:40:19.339Z,26.40
2018-05-07T16:42:48.443Z,26.30
2018-05-07T16:45:23.704Z,26.30
2018-05-07T16:47:53.122Z,26.00
2018-05-07T16:50:22.881Z,25.40
2018-05-07T16:52:50.891Z,25.40
2018-05-07T16:55:18.903Z,25.30
2018-05-07T16:57:46.919Z,25.20
2018-05-07T17:00:20.808Z,25.10
2018-05-07T17:02:55.499Z,25.40
2018-05-07T17:05:26.631Z,25.50
2018-05-07T17:07:55.534Z,25.30
2018-05-07T17:10:23.546Z,25.50
2018-05-07T17:12:52.524Z,25.60
2018-05-07T17:15:20.583Z,25.20
2018-05-07T17:17:48.594Z,25.20
2018-05-07T17:20:17.012Z,25.00
2018-05-07T17:22:46.955Z,24.80
2018-05-07T17:25:14.967Z,24.60
2018-05-07T17:27:44.687Z,24.20
2018-05-07T17:30:17.128Z,24.00
2018-05-07T17:32:45.162Z,24.00
2018-05-07T17:35:13.996Z,23.80
2018-05-07T17:37:42.955Z,23.80
2018-05-07T17:40:16.687Z,23.60
2018-05-07T17:42:47.807Z,23.50
2018-05-07T17:48:29.167Z,23.40
2018-05-07T17:50:57.207Z,23.30
2018-05-07T17:53:28.331Z,23.20
2018-05-07T17:55:56.359Z,23.10
2018-05-07T17:58:44.999Z,23.00
2018-05-07T18:01:24.331Z,23.00
2018-05-07T18:04:02.968Z,22.90
2018-05-07T18:06:48.444Z,22.70
2018-05-07T18:09:26.359Z,22.70
2018-05-07T18:12:08.883Z,22.40
2018-05-07T18:14:36.891Z,21.80
2018-05-07T18:17:27.623Z,21.10
2018-05-07T18:19:55.659Z,21.00
2018-05-07T18:22:27.824Z,20.70
2018-05-07T18:24:59.363Z,20.50
2018-05-07T18:27:29.403Z,20.30
2018-05-07T18:29:58.403Z,20.10
2018-05-07T18:32:30.198Z,20.00
2018-05-07T18:35:01.170Z,19.90
2018-05-07T18:37:29.187Z,19.80
2018-05-07T18:39:57.207Z,19.60
2018-05-07T18:42:26.219Z,19.50
2018-05-07T18:44:57.967Z,19.40
2018-05-07T18:47:25.977Z,19.20
2018-05-07T18:49:55.887Z,19.20
2018-05-07T18:52:27.283Z,19.20
2018-05-07T18:54:56.885Z,19.10
2018-05-07T18:57:26.907Z,18.90
2018-05-07T18:59:58.874Z,18.70
2018-05-07T19:02:30.643Z,18.70
2018-05-07T19:05:14.755Z,18.60
2018-05-07T19:07:49.707Z,18.70
2018-05-07T19:13:18.187Z,18.60
2018-05-07T19:15:55.974Z,18.50
2018-05-07T19:18:42.978Z,18.60
2018-05-07T19:21:23.246Z,18.50
2018-05-07T19:23:59.927Z,18.30
2018-05-07T19:29:30.510Z,17.90
2018-05-07T19:32:07.095Z,17.70
2018-05-07T19:37:42.290Z,17.40
2018-05-07T19:40:18.032Z,17.30
2018-05-07T19:42:58.786Z,17.20
2018-05-07T19:45:28.786Z,17.20
2018-05-07T19:48:02.758Z,17.00
2018-05-07T19:53:30.839Z,17.00
2018-05-07T19:55:58.870Z,17.00
2018-05-07T19:58:28.638Z,17.10
2018-05-07T20:00:57.582Z,17.00
2018-05-07T20:03:29.282Z,17.00
2018-05-07T20:05:57.338Z,16.90
2018-05-07T20:08:26.230Z,16.80
2018-05-07T20:10:54.266Z,16.80
2018-05-07T20:13:22.266Z,16.80
2018-05-07T20:15:58.710Z,16.70
2018-05-07T20:18:27.667Z,16.70
2018-05-07T20:20:55.639Z,16.60
2018-05-07T20:23:23.654Z,16.50
2018-05-07T20:25:51.655Z,16.50
2018-05-07T20:28:19.667Z,16.50
2018-05-07T20:30:52.723Z,16.50
2018-05-07T20:33:20.843Z,16.40
2018-05-07T20:35:48.867Z,16.40
2018-05-07T20:38:16.886Z,16.30
2018-05-07T20:40:46.610Z,16.20
2018-05-07T20:43:14.699Z,16.20
2018-05-07T20:45:52.809Z,16.30
2018-05-07T20:48:28.975Z,16.20
2018-05-07T20:50:58.926Z,16.20
2018-05-07T20:53:30.106Z,16.20
2018-05-07T20:55:58.170Z,16.20
2018-05-07T20:58:27.034Z,16.30
2018-05-07T21:01:01.355Z,16.20
2018-05-07T21:03:29.374Z,16.30
2018-05-07T21:06:01.334Z,16.30
2018-05-07T21:08:29.342Z,16.40
2018-05-07T21:10:58.290Z,16.50
2018-05-07T21:13:26.310Z,16.50
2018-05-07T21:15:54.350Z,16.50
2018-05-07T21:18:25.046Z,16.40
2018-05-07T21:20:54.070Z,16.40
2018-05-07T21:23:34.286Z,16.30
2018-05-07T21:26:03.305Z,16.30
2018-05-07T21:28:32.210Z,16.30
2018-05-07T21:31:02.131Z,16.40
2018-05-07T21:33:30.169Z,16.40
2018-05-07T21:35:58.211Z,16.40
2018-05-07T21:38:27.138Z,16.30
2018-05-07T21:40:56.077Z,16.20
2018-05-07T21:43:25.033Z,16.10
2018-05-07T21:45:58.925Z,16.00
2018-05-07T21:48:26.965Z,16.00
2018-05-07T21:50:54.973Z,16.10
2018-05-07T21:53:23.017Z,16.10
2018-05-07T21:56:04.061Z,16.20
2018-05-07T21:58:32.089Z,16.20
2018-05-07T22:01:00.110Z,16.10
2018-05-07T22:03:29.025Z,16.10
2018-05-07T22:05:57.061Z,16.10
2018-05-07T22:08:25.993Z,16.00
2018-05-07T22:10:54.037Z,16.00
2018-05-07T22:13:22.965Z,15.90
2018-05-07T22:15:51.965Z,15.90
2018-05-07T22:18:23.865Z,15.90
2018-05-07T22:20:51.877Z,15.70
2018-05-07T22:23:26.742Z,15.70
2018-05-07T22:26:00.401Z,15.60
2018-05-07T22:28:29.337Z,15.50
2018-05-07T22:30:58.119Z,15.50
2018-05-07T22:33:26.934Z,15.60
2018-05-07T22:35:54.949Z,15.50
2018-05-07T22:38:22.953Z,15.50
2018-05-07T22:40:51.730Z,15.40
2018-05-07T22:43:20.523Z,15.30
2018-05-07T22:45:52.361Z,15.20
2018-05-07T22:48:20.400Z,15.20
2018-05-07T22:50:50.334Z,15.10
2018-05-07T22:53:21.584Z,15.10
2018-05-07T22:55:54.161Z,15.00
2018-05-07T22:58:23.188Z,15.00
2018-05-07T23:00:52.037Z,14.90
2018-05-07T23:03:20.753Z,14.90
2018-05-07T23:05:49.565Z,14.90
2018-05-07T23:08:17.580Z,14.80
2018-05-07T23:10:46.600Z,14.80
2018-05-07T23:13:14.624Z,14.80
2018-05-07T23:15:44.311Z,14.60
2018-05-07T23:18:12.316Z,14.60
2018-05-07T23:20:44.608Z,14.50
2018-05-07T23:23:16.284Z,14.50
2018-05-07T23:25:50.752Z,14.40
2018-05-07T23:28:18.802Z,14.40
2018-05-07T23:30:49.452Z,14.20
2018-05-07T23:33:18.489Z,14.20
2018-05-07T23:35:46.488Z,14.10
2018-05-07T23:38:14.495Z,14.00
2018-05-07T23:40:43.515Z,13.90
2018-05-07T23:43:12.479Z,13.90
2018-05-07T23:45:41.489Z,13.90
2018-05-07T23:48:12.652Z,13.90
2018-05-07T23:50:52.012Z,14.00
2018-05-07T23:53:21.985Z,14.00
2018-05-07T23:55:55.580Z,14.00
2018-05-07T23:58:23.656Z,14.00
